Manville, NJ (08835)

9:19 PM EST on January 26, 2015 (GMT -0500)
Duke Farms, Hillsborough, NJ | Change Station
CLOSE
Current Station
Personal Weather Station
Location: Hillsborough Township, NJ
Elevation: 75 ft
Nearby Weather Stations
Active Advisory: Winter Storm Warning Active Notice: Public Information Statement

Elev 75 ft 40.54 °N, 74.62 °W | Updated 7 seconds ago

Overcast
Overcast
27.1 °F
Feels Like 18 °F
N
8.9
Wind Variable Wind from NE
Gusts 17.0 mph

Today
High -- | Low -- °F
--% Chance of Precip.
Yesterday
High -- | Low -- °F
Precip. -- in
7:13 AM 5:08 PM
Waxing Crescent, 49% visible
Pressure 29.79 in
Visibility 8.0 miles
Clouds Overcast 2300 ft
Windchill 18 °F
Dew Point 24 °F
Humidity 88%
Rainfall 0.00 in
Snow Depth Not available.
UV 0.0 out of 12
Pollen .10 out of 12
Air Quality Not available.
Flu Activity Not available.
METAR KSMQ 270153Z AUTO 02012G18KT 8SM OVC023 M03/M07 A2978 RMK AO2 UPB36E46 SLP088 P0000 T10281072 TSNO

More Conditions Fewer Conditions

Pressure 29.79 in
Visibility 8.0 miles
Clouds Overcast 2300 ft
Windchill 18 °F
Dew Point 24 °F
Humidity 88%
Rainfall 0.00 in
Snow Depth Not available.
UV 0.0 out of 12
Pollen .10 out of 12
Air Quality Not available.
Flu Activity Not available.
METAR KSMQ 270153Z AUTO 02012G18KT 8SM OVC023 M03/M07 A2978 RMK AO2 UPB36E46 SLP088 P0000 T10281072 TSNO

More Conditions Fewer Conditions

10-Day Weather Forecast

Almanac

Astronomy

Jan. 26, 2015 Rise Set
Actual Time
Civil Twilight
Nautical Twilight
Astronomical Twilight
Moon
Length of Visible Light
Length of Day
Tomorrow will be .
, % of the Moon is Illuminated

Today's Extremes

State Highs State Lows

Community

WunderPhotos

Upload Photos

1,790,475 photos uploaded!

WunderBlogs® & News

Nearby

Air Quality

  Air Quality AQ Index Pollutant
Not available.

Snow Depth

Station Depth Elevation

Earthquake Activity

City Distance Mag. Time & Date
Minimum magnitude displayed is 2.5.

Coastal Water Temperatures

Place Temperature

Nearby Weather Stations